Time;durP1;ratioP1;P1;durP2;ratioP2;P2;SDS_P1;SDS_P2;PMS_P1;PMS_P2;Temp;Humidity;BMP_temperature;BMP_pressure;BME280_temperature;BME280_humidity;BME280_pressure;Samples;Min_cycle;Max_cycle;Signal;HPM_P1;HPM_P2
2023/01/23 00:09:06;;;;;;;1999.90;999.90;;;2.30;99.90;;;;;;6719968;88;20204;-75
2023/01/23 00:19:09;;;;;;;1999.90;999.90;;;2.20;99.90;;;;;;6721211;88;20931;-75
2023/01/23 00:29:09;;;;;;;1999.90;999.90;;;2.20;99.90;;;;;;6720792;88;20185;-75
2023/01/23 00:39:15;;;;;;;1999.90;999.90;;;2.20;99.90;;;;;;6721537;88;20317;-74
2023/01/23 00:49:16;;;;;;;1999.90;999.90;;;2.10;99.90;;;;;;6718043;88;20182;-75
2023/01/23 00:59:17;;;;;;;1999.90;999.90;;;2.20;99.90;;;;;;6721780;88;20699;-74
2023/01/23 01:09:17;;;;;;;1999.90;999.90;;;2.10;99.90;;;;;;6725381;88;20202;-74
2023/01/23 01:19:18;;;;;;;1999.90;999.90;;;2.10;99.90;;;;;;6727894;88;20337;-74
2023/01/23 01:29:19;;;;;;;1999.90;999.90;;;2.20;99.90;;;;;;6719974;88;20235;-74
2023/01/23 01:39:19;;;;;;;1999.90;999.90;;;2.00;99.90;;;;;;6723491;88;20251;-74
2023/01/23 01:49:28;;;;;;;1999.90;999.90;;;2.10;99.90;;;;;;6724397;88;20660;-74
2023/01/23 01:59:33;;;;;;;1999.90;999.90;;;2.00;99.90;;;;;;6723316;88;20323;-74
2023/01/23 02:09:34;;;;;;;1999.90;999.90;;;1.90;99.90;;;;;;6724701;88;20173;-74
2023/01/23 02:19:53;;;;;;;1999.90;999.90;;;2.00;99.90;;;;;;6723335;88;20174;-75
2023/01/23 02:29:55;;;;;;;1999.90;999.90;;;2.00;99.90;;;;;;6718798;88;20219;-74
2023/01/23 02:39:55;;;;;;;1999.90;999.90;;;2.00;99.90;;;;;;6721454;88;20223;-74
2023/01/23 02:49:56;;;;;;;1999.90;999.90;;;2.00;99.90;;;;;;6720780;88;20757;-74
2023/01/23 03:00:14;;;;;;;1999.90;999.90;;;2.10;99.90;;;;;;6726765;88;20181;-75
2023/01/23 03:10:15;;;;;;;1999.90;999.90;;;2.20;99.90;;;;;;6727116;88;20327;-74
2023/01/23 03:20:18;;;;;;;1999.90;999.90;;;2.00;99.90;;;;;;6734420;88;20658;-75
2023/01/23 03:30:20;;;;;;;1999.90;999.90;;;2.00;99.90;;;;;;6722909;88;20529;-74
2023/01/23 03:50:42;;;;;;;1999.90;999.90;;;2.00;99.90;;;;;;6723172;88;20182;-74
2023/01/23 04:00:42;;;;;;;1999.90;999.90;;;1.90;99.90;;;;;;6722935;88;20317;-74
2023/01/23 04:10:43;;;;;;;1999.90;999.90;;;1.70;99.90;;;;;;6719439;88;20290;-74
2023/01/23 04:20:43;;;;;;;1999.90;999.90;;;1.70;99.90;;;;;;6722263;88;20944;-75
2023/01/23 04:30:44;;;;;;;1999.90;999.90;;;1.90;99.90;;;;;;6718501;88;20243;-74
2023/01/23 04:40:46;;;;;;;1999.90;999.90;;;1.90;99.90;;;;;;6719496;88;20687;-74
2023/01/23 04:50:48;;;;;;;1999.90;999.90;;;1.80;99.90;;;;;;6723182;88;20319;-74
2023/01/23 05:00:49;;;;;;;1999.90;999.90;;;1.70;99.90;;;;;;6724059;88;20169;-73
2023/01/23 05:10:49;;;;;;;1999.90;999.90;;;1.60;99.90;;;;;;6723826;88;20605;-73
2023/01/23 05:20:50;;;;;;;1999.90;999.90;;;1.30;99.90;;;;;;6725334;88;20208;-73
2023/01/23 05:30:50;;;;;;;1999.90;999.90;;;1.20;99.90;;;;;;6723714;88;20273;-74
2023/01/23 05:40:51;;;;;;;1999.90;999.90;;;1.40;99.90;;;;;;6723296;88;20743;-73
2023/01/23 05:50:52;;;;;;;1999.90;999.90;;;1.60;99.90;;;;;;6725306;88;20328;-74
2023/01/23 06:00:53;;;;;;;1999.90;999.90;;;1.60;99.90;;;;;;6721888;88;20177;-73
2023/01/23 06:10:57;;;;;;;1999.90;999.90;;;1.70;99.90;;;;;;6723019;88;20186;-74
2023/01/23 06:20:59;;;;;;;1999.90;999.90;;;1.60;99.90;;;;;;6718777;88;20212;-73
2023/01/23 06:31:02;;;;;;;1999.90;999.90;;;1.70;99.90;;;;;;6722426;88;20203;-75
2023/01/23 06:41:03;;;;;;;1999.90;999.90;;;1.60;99.90;;;;;;6723723;88;20702;-77
2023/01/23 06:51:04;;;;;;;1999.90;999.90;;;1.80;99.90;;;;;;6726143;88;20261;-74
2023/01/23 07:01:14;;;;;;;1999.90;999.90;;;1.70;99.90;;;;;;6724908;88;21280;-74
2023/01/23 07:11:15;;;;;;;1999.90;999.90;;;1.80;99.90;;;;;;6720810;88;20843;-74
2023/01/23 07:21:15;;;;;;;1999.90;999.90;;;1.70;99.90;;;;;;6722262;88;20237;-74
2023/01/23 07:31:16;;;;;;;1999.90;999.90;;;1.80;99.90;;;;;;6718282;88;20507;-74
2023/01/23 07:41:16;;;;;;;1999.90;999.90;;;1.90;99.90;;;;;;6723328;88;20619;-74
2023/01/23 07:51:17;;;;;;;1999.90;999.90;;;1.80;99.90;;;;;;6718372;88;20244;-73
2023/01/23 08:01:20;;;;;;;1999.90;999.90;;;1.90;99.90;;;;;;6721417;88;20222;-74
2023/01/23 08:11:22;;;;;;;1999.90;999.90;;;1.90;99.90;;;;;;6718659;88;20530;-75
2023/01/23 08:21:23;;;;;;;1999.90;999.90;;;2.10;99.90;;;;;;6718557;88;20715;-75
2023/01/23 08:31:24;;;;;;;1999.90;999.90;;;2.00;99.90;;;;;;6715351;88;20289;-74
2023/01/23 08:41:25;;;;;;;1999.90;999.90;;;1.90;99.90;;;;;;6723677;88;20197;-75
2023/01/23 08:51:26;;;;;;;1999.90;999.90;;;2.00;99.90;;;;;;6722691;88;20187;-75
2023/01/23 09:01:27;;;;;;;1999.90;999.90;;;2.20;99.90;;;;;;6718646;88;20312;-73
2023/01/23 09:11:28;;;;;;;1999.90;999.90;;;2.30;99.90;;;;;;6720723;88;20602;-73
2023/01/23 09:21:28;;;;;;;1999.90;999.90;;;2.30;99.90;;;;;;6723816;88;20359;-75
2023/01/23 09:31:29;;;;;;;1999.90;999.90;;;2.30;99.90;;;;;;6720398;88;20198;-75
2023/01/23 09:41:30;;;;;;;1999.90;999.90;;;2.40;99.90;;;;;;6723077;88;20211;-74
2023/01/23 09:51:55;;;;;;;1999.90;999.90;;;2.70;99.90;;;;;;6722889;88;20194;-75
2023/01/23 10:01:56;;;;;;;1999.90;999.90;;;2.80;99.90;;;;;;6722566;88;20315;-75
2023/01/23 10:12:00;;;;;;;1999.90;999.90;;;2.80;99.90;;;;;;6728432;88;20302;-75
2023/01/23 10:22:04;;;;;;;1999.90;999.90;;;2.90;99.90;;;;;;6721452;88;20252;-75
2023/01/23 10:32:26;;;;;;;1999.90;999.90;;;3.20;99.90;;;;;;6725887;88;20185;-75
2023/01/23 10:42:27;;;;;;;1999.90;999.90;;;3.40;99.90;;;;;;6727882;88;20608;-74
2023/01/23 10:52:34;;;;;;;1999.90;999.90;;;3.50;99.90;;;;;;6725320;88;20218;-76
2023/01/23 11:02:37;;;;;;;1999.90;999.90;;;3.70;99.90;;;;;;6725372;88;20356;-76
2023/01/23 11:12:50;;;;;;;1999.90;999.90;;;3.70;99.90;;;;;;6725293;88;20670;-75
2023/01/23 11:23:03;;;;;;;1999.90;999.90;;;3.90;99.90;;;;;;6726538;88;20585;-73
2023/01/23 11:33:23;;;;;;;1999.90;999.90;;;4.10;99.90;;;;;;6719415;88;20214;-76
2023/01/23 11:43:24;;;;;;;1999.90;999.90;;;4.20;99.90;;;;;;6722640;88;20174;-74
2023/01/23 11:53:38;;;;;;;1999.90;999.90;;;4.40;99.90;;;;;;6720323;88;20716;-74
2023/01/23 12:03:57;;;;;;;1999.90;999.90;;;4.40;99.90;;;;;;6719834;88;20644;-74
2023/01/23 12:14:39;;;;;;;1999.90;999.90;;;4.50;99.90;;;;;;6715561;88;20244;-74
2023/01/23 12:25:04;;;;;;;1999.90;999.90;;;4.20;99.90;;;;;;6695719;88;20947;-74
2023/01/23 12:35:13;;;;;;;1999.90;999.90;;;4.50;99.90;;;;;;6712741;88;20609;-73
2023/01/23 12:45:24;;;;;;;1999.90;999.90;;;4.40;99.90;;;;;;6713802;88;20413;-73
2023/01/23 12:55:40;;;;;;;1999.90;999.90;;;4.30;99.90;;;;;;6715813;88;20227;-73
2023/01/23 13:06:01;;;;;;;1999.90;999.90;;;4.40;99.90;;;;;;6717006;88;20361;-74
2023/01/23 13:16:14;;;;;;;1999.90;999.90;;;4.50;99.90;;;;;;6718727;88;20705;-74
2023/01/23 13:26:14;;;;;;;1999.90;999.90;;;4.70;99.90;;;;;;6720719;88;20211;-74
2023/01/23 13:36:24;;;;;;;1999.90;999.90;;;4.60;99.90;;;;;;6718771;88;20184;-75
2023/01/23 13:47:04;;;;;;;1999.90;999.90;;;4.60;99.90;;;;;;6720845;88;20648;-74
2023/01/23 13:57:05;;;;;;;1999.90;999.90;;;4.60;99.90;;;;;;6714335;88;20211;-75
2023/01/23 14:07:41;;;;;;;1999.90;999.90;;;4.50;99.90;;;;;;6715600;88;20197;-75
2023/01/23 14:17:42;;;;;;;1999.90;999.90;;;4.60;99.90;;;;;;6717614;88;20202;-75
2023/01/23 14:27:43;;;;;;;1999.90;999.90;;;4.50;99.90;;;;;;6719452;88;20198;-74
2023/01/23 14:37:45;;;;;;;1999.90;999.90;;;4.40;99.90;;;;;;6719551;88;20345;-74
2023/01/23 14:47:46;;;;;;;1999.90;999.90;;;4.40;99.90;;;;;;6718411;88;20319;-74
2023/01/23 14:57:50;;;;;;;1999.90;999.90;;;4.40;99.90;;;;;;6718401;88;20262;-75
2023/01/23 15:07:55;;;;;;;1999.90;999.90;;;4.30;99.90;;;;;;6719975;88;20201;-74
2023/01/23 15:17:56;;;;;;;1999.90;999.90;;;4.30;99.90;;;;;;6721335;88;20194;-74
2023/01/23 15:27:57;;;;;;;1999.90;999.90;;;4.20;99.90;;;;;;6719219;88;20222;-75
2023/01/23 15:38:03;;;;;;;1999.90;999.90;;;4.10;99.90;;;;;;6718699;88;20291;-74
2023/01/23 15:48:04;;;;;;;1999.90;999.90;;;4.10;99.90;;;;;;6722465;88;20889;-74
2023/01/23 15:58:05;;;;;;;1999.90;999.90;;;4.00;99.90;;;;;;6716667;88;20345;-73
2023/01/23 16:08:19;;;;;;;1999.90;999.90;;;4.00;99.90;;;;;;6717850;88;20286;-73
2023/01/23 16:18:19;;;;;;;1999.90;999.90;;;3.90;99.90;;;;;;6716908;88;20335;-74
2023/01/23 16:28:22;;;;;;;1999.90;999.90;;;3.90;99.90;;;;;;6712976;88;20283;-74
2023/01/23 16:38:26;;;;;;;1999.90;999.90;;;3.90;99.90;;;;;;6715851;88;20206;-74
2023/01/23 16:48:27;;;;;;;1999.90;999.90;;;3.80;99.90;;;;;;6718079;88;20729;-73
2023/01/23 16:58:39;;;;;;;1999.90;999.90;;;3.90;99.90;;;;;;6715747;88;20232;-73
2023/01/23 17:08:40;;;;;;;1999.90;999.90;;;3.80;99.90;;;;;;6720162;88;20590;-73
2023/01/23 17:18:40;;;;;;;1999.90;999.90;;;3.80;99.90;;;;;;6717308;88;20213;-73
2023/01/23 17:28:42;;;;;;;1999.90;999.90;;;3.70;99.90;;;;;;6716647;88;20716;-73
2023/01/23 17:38:42;;;;;;;1999.90;999.90;;;3.70;99.90;;;;;;6721476;88;20600;-73
2023/01/23 17:48:43;;;;;;;1999.90;999.90;;;3.50;99.90;;;;;;6721600;88;20630;-75
2023/01/23 17:58:44;;;;;;;1999.90;999.90;;;3.60;99.90;;;;;;6731189;88;20265;-73
2023/01/23 18:08:45;;;;;;;1999.90;999.90;;;3.70;99.90;;;;;;6716703;88;20185;-73
2023/01/23 18:18:51;;;;;;;1999.90;999.90;;;3.80;99.90;;;;;;6718316;88;20209;-73
2023/01/23 18:29:00;;;;;;;1999.90;999.90;;;3.50;99.90;;;;;;6721432;88;20177;-74
2023/01/23 18:39:20;;;;;;;1999.90;999.90;;;3.50;99.90;;;;;;6716819;88;20199;-74
2023/01/23 18:49:20;;;;;;;1999.90;999.90;;;3.50;99.90;;;;;;6718087;88;20274;-73
2023/01/23 18:59:41;;;;;;;1999.90;999.90;;;3.50;99.90;;;;;;6715564;88;20227;-73
2023/01/23 19:09:45;;;;;;;1999.90;999.90;;;3.50;99.90;;;;;;6712876;88;20764;-74
2023/01/23 19:20:31;;;;;;;1999.90;999.90;;;3.50;99.90;;;;;;6718386;88;20199;-74
2023/01/23 19:30:32;;;;;;;1999.90;999.90;;;3.40;99.90;;;;;;6719804;88;20228;-74
2023/01/23 19:40:33;;;;;;;1999.90;999.90;;;3.40;99.90;;;;;;6722078;88;20220;-75
2023/01/23 19:50:33;;;;;;;1999.90;999.90;;;3.40;99.90;;;;;;6718169;88;20192;-76
2023/01/23 20:00:37;;;;;;;1999.90;999.90;;;3.40;99.90;;;;;;6717336;88;20623;-74
2023/01/23 20:10:37;;;;;;;1999.90;999.90;;;3.50;99.90;;;;;;6717157;88;20604;-75
2023/01/23 20:20:38;;;;;;;1999.90;999.90;;;3.50;99.90;;;;;;6716025;88;20778;-75
2023/01/23 20:30:38;;;;;;;1999.90;999.90;;;3.60;99.90;;;;;;6720977;88;20712;-76
2023/01/23 20:40:39;;;;;;;1999.90;999.90;;;3.60;99.90;;;;;;6716544;88;20260;-74
2023/01/23 20:50:40;;;;;;;1999.90;999.90;;;3.40;99.90;;;;;;6715394;88;20317;-76
2023/01/23 21:00:42;;;;;;;1999.90;999.90;;;3.40;99.90;;;;;;6723179;88;20198;-75
2023/01/23 21:10:43;;;;;;;1999.90;999.90;;;3.60;99.90;;;;;;6718648;88;21913;-75
2023/01/23 21:20:43;;;;;;;1999.90;999.90;;;3.50;99.90;;;;;;6718997;88;20170;-75
2023/01/23 21:30:44;;;;;;;1999.90;999.90;;;3.50;99.90;;;;;;6717873;88;20374;-75
2023/01/23 21:40:44;;;;;;;1999.90;999.90;;;3.50;99.90;;;;;;6719643;88;20967;-74
2023/01/23 21:50:45;;;;;;;1999.90;999.90;;;3.60;99.90;;;;;;6718929;88;20255;-74
2023/01/23 22:11:06;;;;;;;1999.90;999.90;;;3.50;99.90;;;;;;6715885;88;20165;-74
2023/01/23 22:21:07;;;;;;;1999.90;999.90;;;3.40;99.90;;;;;;6717135;88;20218;-75
2023/01/23 22:31:13;;;;;;;1999.90;999.90;;;3.40;99.90;;;;;;6721217;88;20298;-74
2023/01/23 22:41:13;;;;;;;1999.90;999.90;;;3.50;99.90;;;;;;6717927;88;20194;-75
2023/01/23 22:51:20;;;;;;;1999.90;999.90;;;3.50;99.90;;;;;;6719293;88;20241;-74
2023/01/23 23:01:22;;;;;;;;;;;3.40;99.90;;;;;;6722853;88;20568;-74
2023/01/23 23:11:27;;;;;;;1999.90;999.90;;;3.40;99.90;;;;;;6720737;88;20045;-74
2023/01/23 23:21:31;;;;;;;1999.90;999.90;;;3.40;99.90;;;;;;6719976;88;20295;-75
2023/01/23 23:31:32;;;;;;;1999.90;999.90;;;3.50;99.90;;;;;;6718255;88;20194;-75
2023/01/23 23:41:32;;;;;;;1999.90;999.90;;;3.30;99.90;;;;;;6721552;88;20211;-75
2023/01/23 23:51:33;;;;;;;1999.90;999.90;;;3.40;99.90;;;;;;6718139;88;20690;-75
